Goodyear, AZ

1:38 PM MST on August 23, 2014 (GMT -0700)
Glendale Municipal | Change Station
CLOSE
Current Station
Airport
Location: Glendale,
Elevation: 1066 ft
Nearby Weather Stations

Elev 1066 ft 33.53 °N, 112.29 °W | Updated 51 minutes ago

Scattered Clouds
Scattered Clouds
93 °F
Feels Like 91 °F
N
5
Wind Variable Wind from SSW

Today
High -- | Low -- °F
--% Chance of Precip.
Yesterday
High -- | Low -- °F
Precip. -- in
5:57 AM 7:06 PM
Waning Crescent, 3% visible
Pressure 29.91 in
Visibility 20.0 miles
Clouds Few 12000 ft
Scattered Clouds 20000 ft
Heat Index 91 °F
Dew Point 54 °F
Humidity 26%
Rainfall 0.00 in
Snow Depth Not available.
UV 9 out of 12
Pollen 4.50 out of 12
Ozone Good
PM2.5 Good
Flu Activity Not available.
METAR KGEU 231947Z 21004KT 20SM FEW120 SCT200 34/12 A2991

More Conditions Fewer Conditions

Pressure 29.91 in
Visibility 20.0 miles
Clouds Few 12000 ft
Scattered Clouds 20000 ft
Heat Index 91 °F
Dew Point 54 °F
Humidity 26%
Rainfall 0.00 in
Snow Depth Not available.
UV 9 out of 12
Pollen 4.50 out of 12
Ozone Good
PM2.5 Good
Flu Activity Not available.
METAR KGEU 231947Z 21004KT 20SM FEW120 SCT200 34/12 A2991

More Conditions Fewer Conditions

10-Day Weather Forecast

Almanac

Astronomy

Aug. 23, 2014 Rise Set
Actual Time 5:57 AM MST 7:06 PM MST
Civil Twilight 5:31 AM MST 7:31 PM MST
Nautical Twilight 5:01 AM MST 8:02 PM MST
Astronomical Twilight 4:29 AM MST 8:34 PM MST
Moon 4:18 AM MST 5:52 PM MST
Length of Visible Light 14h 00m
Length of Day
13h 08m
Tomorrow will be 1m 54s shorter.
Waning Crescent, 3% of the Moon is Illuminated
Today
Waning Crescent
Aug 25
New
Sep 2
First Quarter
Sep 8
Full
Sep 15
Last Quarter

Today's Extremes

State Highs State Lows

Community

WunderPhotos

Upload Photos

1,746,619 photos uploaded!

WunderBlogs® & News

Nearby

Air Quality

  Air Quality AQ Index Pollutant
Yesterday Good
OZONE
Yesterday Good
PM10
Current Good
OZONE
Current Good
PM2.5
Saturday Moderate
OZONE
Saturday Good
PM10
Saturday Good
CO
Sunday Moderate
OZONE
Sunday Good
PM10
Sunday Good
CO

Snow Depth

Station Depth Elevation
Workman Creek 0 in 6900 ft
Heber 0 in 7640 ft
Snowslide Canyon 0 in 9730 ft
Beaver Head 6 in 7990 ft

Earthquake Activity

City Distance Mag. Time & Date
No recent earthquake activity has been reported nearby.
Minimum magnitude displayed is 2.5.

Coastal Water Temperatures

Place Temperature
No Stations Reporting

Nearby Weather Stations